createdAt,value
2018-07-15T00:03:22.996Z,97047.42
2018-07-15T00:08:18.281Z,97050.53
2018-07-15T00:13:13.566Z,97035.27
2018-07-15T00:18:08.437Z,97042.41
2018-07-15T00:23:03.139Z,97043.73
2018-07-15T00:27:57.756Z,97046.59
2018-07-15T00:32:51.987Z,97059.91
2018-07-15T00:37:46.588Z,97071.43
2018-07-15T00:42:41.188Z,97070.83
2018-07-15T00:47:35.799Z,97074.37
2018-07-15T00:52:30.436Z,97076.34
2018-07-15T00:57:25.173Z,97078.89
2018-07-15T01:02:19.921Z,97082.38
2018-07-15T01:07:14.636Z,97078.70
2018-07-15T01:12:09.031Z,97082.41
2018-07-15T01:17:03.797Z,97081.58
2018-07-15T01:21:58.512Z,97085.72
2018-07-15T01:26:53.163Z,97083.69
2018-07-15T01:31:47.825Z,97078.20
2018-07-15T01:36:42.501Z,97071.53
2018-07-15T01:41:37.177Z,97069.13
2018-07-15T01:46:31.850Z,97077.95
2018-07-15T01:51:26.405Z,97075.66
2018-07-15T01:56:20.980Z,97078.81
2018-07-15T02:01:15.623Z,97080.20
2018-07-15T02:06:09.868Z,97083.06
2018-07-15T02:11:04.463Z,97087.38
2018-07-15T02:15:59.088Z,97084.90
2018-07-15T02:20:53.784Z,97087.00
2018-07-15T02:25:48.409Z,97084.16
2018-07-15T02:30:43.048Z,97083.75
2018-07-15T02:35:37.640Z,97085.17
2018-07-15T02:40:32.486Z,97091.50
2018-07-15T02:45:27.311Z,97094.68
2018-07-15T02:50:21.900Z,97086.48
2018-07-15T02:55:16.580Z,97088.47
2018-07-15T03:00:11.167Z,97086.80
2018-07-15T03:05:05.820Z,97083.51
2018-07-15T03:10:00.188Z,97086.52
2018-07-15T03:14:55.108Z,97083.21
2018-07-15T03:19:49.767Z,97077.20
2018-07-15T03:24:44.399Z,97088.70
2018-07-15T03:29:39.072Z,97082.25
2018-07-15T03:34:33.640Z,97081.87
2018-07-15T03:39:28.244Z,97087.06
2018-07-15T03:44:22.903Z,97081.25
2018-07-15T03:49:17.207Z,97078.44
2018-07-15T03:54:11.890Z,97071.23
2018-07-15T03:59:06.494Z,97063.08
2018-07-15T04:04:01.687Z,97062.33
2018-07-15T04:08:56.473Z,97066.70
2018-07-15T04:13:51.430Z,97066.52
2018-07-15T04:18:46.100Z,97053.78
2018-07-15T04:23:40.748Z,97048.84
2018-07-15T04:28:35.456Z,97063.73
2018-07-15T04:33:30.089Z,97070.44
2018-07-15T04:38:24.765Z,97081.30
2018-07-15T04:43:19.582Z,97080.64
2018-07-15T04:48:14.241Z,97087.27
2018-07-15T04:53:08.939Z,97099.98
2018-07-15T04:58:04.530Z,97120.09
2018-07-15T05:02:59.280Z,97125.30
2018-07-15T05:07:53.967Z,97126.34
2018-07-15T05:12:48.707Z,97139.02
2018-07-15T05:17:43.369Z,97145.95
2018-07-15T05:22:37.969Z,97159.37
2018-07-15T05:27:32.579Z,97162.88
2018-07-15T05:32:27.156Z,97159.89
2018-07-15T05:37:21.731Z,97157.08
2018-07-15T05:42:16.357Z,97152.59
2018-07-15T05:47:10.976Z,97147.33
2018-07-15T05:52:06.850Z,97155.05
2018-07-15T05:57:01.471Z,97142.91
2018-07-15T06:01:56.135Z,97140.58
2018-07-15T06:06:50.819Z,97134.84
2018-07-15T06:11:46.599Z,97143.72
2018-07-15T06:16:41.183Z,97138.42
2018-07-15T06:21:35.838Z,97140.30
2018-07-15T06:26:30.513Z,97144.28
2018-07-15T06:31:25.190Z,97143.14
2018-07-15T06:36:19.832Z,97145.32
2018-07-15T06:41:14.568Z,97135.06
2018-07-15T06:46:09.427Z,97135.39
2018-07-15T06:51:03.750Z,97128.09
2018-07-15T06:55:58.420Z,97133.25
2018-07-15T07:00:53.010Z,97137.74
2018-07-15T07:05:47.713Z,97151.39
2018-07-15T07:10:42.444Z,97148.72
2018-07-15T07:20:26.939Z,97136.47
2018-07-15T07:25:21.681Z,97132.45
2018-07-15T07:30:16.362Z,97141.23
2018-07-15T07:35:10.948Z,97134.17
2018-07-15T07:40:06.780Z,97132.98
2018-07-15T07:45:01.399Z,97128.42
2018-07-15T07:49:56.009Z,97120.45
2018-07-15T07:54:50.656Z,97118.45
2018-07-15T07:59:44.964Z,97115.58
2018-07-15T08:04:40.294Z,97120.42
2018-07-15T08:09:34.933Z,97118.36
2018-07-15T08:14:29.679Z,97109.11
2018-07-15T08:19:24.447Z,97112.34
2018-07-15T08:24:19.289Z,97107.23
2018-07-15T08:29:14.903Z,97105.02
2018-07-15T08:34:09.626Z,97096.75
2018-07-15T08:39:05.453Z,97096.87
2018-07-15T08:44:00.111Z,97096.08
2018-07-15T08:48:54.780Z,97096.19
2018-07-15T08:53:49.519Z,97099.34
2018-07-15T08:58:44.722Z,97086.49
2018-07-15T09:03:39.386Z,97084.32
2018-07-15T09:08:34.442Z,97075.33
2018-07-15T09:13:29.083Z,97078.52
2018-07-15T09:18:23.716Z,97081.81
2018-07-15T09:23:18.311Z,97078.82
2018-07-15T09:28:13.177Z,97095.73
2018-07-15T09:33:07.864Z,97090.09
2018-07-15T09:38:02.943Z,97093.53
2018-07-15T09:42:57.524Z,97083.10
2018-07-15T09:47:52.293Z,97072.45
2018-07-15T09:52:47.033Z,97064.30
2018-07-15T09:57:41.651Z,97065.95
2018-07-15T10:02:36.284Z,97066.44
2018-07-15T10:07:31.063Z,97059.33
2018-07-15T10:12:25.797Z,97045.63
2018-07-15T10:17:20.542Z,97039.81
2018-07-15T10:22:15.170Z,97033.45
2018-07-15T10:27:09.799Z,97028.05
2018-07-15T10:32:04.616Z,97018.81
2018-07-15T10:36:59.283Z,97004.89
2018-07-15T10:41:53.940Z,97012.02
2018-07-15T10:46:48.704Z,96999.60
2018-07-15T10:51:43.397Z,96992.80
2018-07-15T10:56:38.060Z,96979.55
2018-07-15T11:01:32.704Z,96974.84
2018-07-15T11:06:27.052Z,96964.74
2018-07-15T11:11:21.701Z,96958.68
2018-07-15T11:16:16.478Z,96952.70
2018-07-15T11:21:11.213Z,96954.84
2018-07-15T11:26:05.969Z,96947.57
2018-07-15T11:31:00.699Z,96947.71
2018-07-15T11:35:55.229Z,96935.52
2018-07-15T11:40:49.911Z,96927.44
2018-07-15T11:45:44.525Z,96925.53
2018-07-15T11:50:39.156Z,96926.76
2018-07-15T11:55:33.718Z,96912.32
2018-07-15T12:00:28.351Z,96907.70
2018-07-15T12:05:22.940Z,96897.73
2018-07-15T12:10:17.541Z,96899.59
2018-07-15T12:15:12.130Z,96895.25
2018-07-15T12:20:06.796Z,96895.66
2018-07-15T12:25:01.468Z,96891.41
2018-07-15T12:29:56.112Z,96891.66
2018-07-15T12:34:50.762Z,96887.27
2018-07-15T12:39:45.355Z,96879.00
2018-07-15T12:44:39.978Z,96867.47
2018-07-15T12:49:34.647Z,96871.26
2018-07-15T12:54:29.379Z,96860.49
2018-07-15T12:59:24.055Z,96853.55
2018-07-15T13:04:18.751Z,96838.81
2018-07-15T13:09:13.383Z,96834.20
2018-07-15T13:14:08.029Z,96829.05
2018-07-15T13:19:02.738Z,96825.98
2018-07-15T13:23:57.499Z,96823.50
2018-07-15T13:28:52.153Z,96812.95
2018-07-15T13:33:47.045Z,96810.27
2018-07-15T13:38:41.651Z,96804.88
2018-07-15T13:43:36.430Z,96806.52
2018-07-15T13:48:31.292Z,96796.58
2018-07-15T13:53:25.932Z,96799.55
2018-07-15T13:58:20.636Z,96786.03
2018-07-15T14:03:15.348Z,96784.42
2018-07-15T14:08:10.093Z,96780.14
2018-07-15T14:13:04.877Z,96768.91
2018-07-15T14:17:59.479Z,96773.39
2018-07-15T14:22:54.211Z,96759.91
2018-07-15T14:27:48.850Z,96757.99
2018-07-15T14:32:43.401Z,96755.50
2018-07-15T14:37:38.205Z,96756.97
2018-07-15T14:42:32.811Z,96769.59
2018-07-15T14:47:27.490Z,96769.52
2018-07-15T14:52:22.188Z,96781.66
2018-07-15T14:57:16.860Z,96775.78
2018-07-15T15:02:11.577Z,96781.22
2018-07-15T15:07:06.420Z,96781.83
2018-07-15T15:12:01.124Z,96767.16
2018-07-15T15:16:55.897Z,96755.13
2018-07-15T15:21:53.423Z,96755.38
2018-07-15T15:26:48.197Z,96756.66
2018-07-15T15:31:43.148Z,96752.25
2018-07-15T15:36:37.895Z,96742.75
2018-07-15T15:41:32.608Z,96743.27
2018-07-15T15:46:27.219Z,96730.95
2018-07-15T15:51:21.904Z,96710.33
2018-07-15T15:56:16.468Z,96707.52
2018-07-15T16:01:11.120Z,96706.20
2018-07-15T16:06:05.949Z,96698.52
2018-07-15T16:11:00.527Z,96701.40
2018-07-15T16:15:55.256Z,96711.84
2018-07-15T16:20:49.831Z,96716.47
2018-07-15T16:25:44.551Z,96747.95
2018-07-15T16:30:39.299Z,96771.84
2018-07-15T16:35:33.972Z,96788.34
2018-07-15T16:40:28.729Z,96833.86
2018-07-15T16:45:23.315Z,96856.76
2018-07-15T16:50:18.007Z,96863.15
2018-07-15T16:55:12.326Z,96843.15
2018-07-15T17:00:07.229Z,96822.13
2018-07-15T17:05:01.896Z,96825.56
2018-07-15T17:09:57.249Z,96835.20
2018-07-15T17:14:52.013Z,96835.44
2018-07-15T17:19:46.728Z,96827.25
2018-07-15T17:24:41.419Z,96831.16
2018-07-15T17:29:35.738Z,96840.95
2018-07-15T17:34:30.481Z,96847.15
2018-07-15T17:44:25.947Z,96857.44
2018-07-15T17:49:20.918Z,96864.36
2018-07-15T17:54:15.693Z,96871.88
2018-07-15T17:59:10.970Z,96869.42
2018-07-15T18:04:05.713Z,96859.41
2018-07-15T18:09:00.527Z,96856.48
2018-07-15T18:13:55.216Z,96853.30
2018-07-15T18:18:54.078Z,96845.52
2018-07-15T18:23:48.892Z,96850.34
2018-07-15T18:28:44.255Z,96855.66
2018-07-15T18:33:39.251Z,96858.56
2018-07-15T18:38:34.326Z,96874.83
2018-07-15T18:43:29.368Z,96886.64
2018-07-15T18:48:24.365Z,96901.92
2018-07-15T18:53:19.132Z,96903.54
2018-07-15T18:58:13.848Z,96916.88
2018-07-15T19:03:08.600Z,96922.67
2018-07-15T19:08:03.399Z,96939.80
2018-07-15T19:12:58.173Z,96934.55
2018-07-15T19:17:52.902Z,96915.28
2018-07-15T19:22:47.690Z,96904.08
2018-07-15T19:27:42.421Z,96898.73
2018-07-15T19:32:37.116Z,96905.67
2018-07-15T19:37:31.949Z,96905.36
2018-07-15T19:42:26.772Z,96926.48
2018-07-15T19:47:21.763Z,96944.30
2018-07-15T19:52:16.489Z,96964.59
2018-07-15T19:57:13.159Z,96983.97
2018-07-15T20:02:08.127Z,97006.52
2018-07-15T20:07:02.855Z,97022.70
2018-07-15T20:11:57.615Z,97037.31
2018-07-15T20:16:52.316Z,97029.63
2018-07-15T20:21:47.108Z,97029.78
2018-07-15T20:26:41.828Z,97027.69
2018-07-15T20:31:36.567Z,97027.91
2018-07-15T20:36:31.373Z,97038.99
2018-07-15T20:41:26.346Z,97043.20
2018-07-15T20:46:21.289Z,97030.63
2018-07-15T20:51:16.197Z,97036.86
2018-07-15T20:56:11.087Z,97044.41
2018-07-15T21:01:05.702Z,97062.16
2018-07-15T21:06:00.447Z,97092.77
2018-07-15T21:10:55.213Z,97120.02
2018-07-15T21:15:50.043Z,97123.82
2018-07-15T21:20:45.032Z,97124.98
2018-07-15T21:25:40.119Z,97123.34
2018-07-15T21:30:35.056Z,97111.72
2018-07-15T21:35:30.257Z,97107.60
2018-07-15T21:40:25.367Z,97106.13
2018-07-15T21:45:21.067Z,97109.87
2018-07-15T21:50:16.577Z,97091.92
2018-07-15T21:55:13.988Z,97077.44
2018-07-15T22:00:09.514Z,97067.62
2018-07-15T22:05:04.854Z,97076.78
2018-07-15T22:10:12.153Z,97075.28
2018-07-15T22:15:07.021Z,97062.48
2018-07-15T22:20:01.953Z,97061.48
2018-07-15T22:24:56.828Z,97048.69
2018-07-15T22:29:51.686Z,97052.34
2018-07-15T22:34:46.459Z,97058.14
2018-07-15T22:39:41.223Z,97048.97
2018-07-15T22:44:36.107Z,97052.49
2018-07-15T22:49:30.920Z,97039.88
2018-07-15T22:54:25.924Z,97028.05
2018-07-15T22:59:20.802Z,97026.39
2018-07-15T23:04:16.288Z,97015.70
2018-07-15T23:09:12.145Z,97018.55
2018-07-15T23:14:07.608Z,97004.63
2018-07-15T23:19:02.448Z,97013.87
2018-07-15T23:23:57.236Z,97010.93
2018-07-15T23:28:51.643Z,97014.44
2018-07-15T23:33:46.377Z,97008.28
2018-07-15T23:38:41.360Z,97003.10
2018-07-15T23:43:36.829Z,96995.98
2018-07-15T23:48:31.587Z,97002.97
2018-07-15T23:53:26.395Z,97002.64
2018-07-15T23:58:21.144Z,96992.98
